Time;durP1;ratioP1;P1;durP2;ratioP2;P2;SDS_P1;SDS_P2;PMS_P1;PMS_P2;Temp;Humidity;BMP_temperature;BMP_pressure;BME280_temperature;BME280_humidity;BME280_pressure;Samples;Min_cycle;Max_cycle;Signal;HPM_P1;HPM_P2
2024/03/02 00:04:08;;;;;;;1999.90;999.90;;;;;;;7.32;100.00;94235.97;10385346;28;20045;-76
2024/03/02 00:09:11;;;;;;;1999.90;999.90;;;;;;;7.20;100.00;94236.25;10384641;28;20025;-79
2024/03/02 00:14:12;;;;;;;1999.90;999.90;;;;;;;7.07;100.00;94226.03;10381840;28;20025;-79
2024/03/02 00:19:12;;;;;;;1999.90;999.90;;;;;;;7.16;100.00;94233.28;10382805;28;20040;-78
2024/03/02 00:24:33;;;;;;;1999.90;999.90;;;;;;;7.33;100.00;94221.56;10384336;28;20103;-78
2024/03/02 00:29:34;;;;;;;1999.90;999.90;;;;;;;7.52;100.00;94227.19;10380199;28;20099;-77
2024/03/02 00:34:35;;;;;;;1999.90;999.90;;;;;;;7.47;100.00;94229.88;10384619;28;20485;-79
2024/03/02 00:39:35;;;;;;;1999.90;999.90;;;;;;;7.55;100.00;94207.13;10382304;28;20049;-79
2024/03/02 00:44:37;;;;;;;1999.90;999.90;;;;;;;7.44;100.00;94217.81;10379996;28;20396;-78
2024/03/02 00:49:37;;;;;;;1999.90;999.90;;;;;;;7.62;100.00;94189.75;10383326;28;20265;-78
2024/03/02 00:54:38;;;;;;;1999.90;999.90;;;;;;;7.60;100.00;94202.56;10381106;28;20021;-78
2024/03/02 00:59:38;;;;;;;1999.90;999.90;;;;;;;7.66;100.00;94185.47;10379074;28;20021;-78
2024/03/02 01:04:38;;;;;;;1999.90;999.90;;;;;;;7.72;100.00;94188.13;10382665;28;20476;-80
2024/03/02 01:09:39;;;;;;;1999.90;999.90;;;;;;;7.79;100.00;94188.69;10381385;28;20268;-79
2024/03/02 01:14:39;;;;;;;1999.90;999.90;;;;;;;7.89;100.00;94187.88;10381237;28;20279;-78
2024/03/02 01:19:41;;;;;;;1999.90;999.90;;;;;;;7.94;100.00;94186.00;10381512;28;20316;-77
2024/03/02 01:24:42;;;;;;;1999.90;999.90;;;;;;;7.98;100.00;94186.25;10380766;28;20463;-78
2024/03/02 01:29:42;;;;;;;1999.90;999.90;;;;;;;8.02;100.00;94171.25;10380442;28;20103;-79
2024/03/02 01:34:43;;;;;;;1999.90;999.90;;;;;;;8.13;100.00;94166.69;10382678;28;20059;-78
2024/03/02 01:39:43;;;;;;;1999.90;999.90;;;;;;;8.14;100.00;94161.06;10377706;28;20460;-79
2024/03/02 01:44:44;;;;;;;1999.90;999.90;;;;;;;8.18;100.00;94155.97;10385743;28;20146;-78
2024/03/02 01:49:44;;;;;;;1999.90;999.90;;;;;;;8.26;100.00;94150.06;10380655;28;20721;-78
2024/03/02 01:54:44;;;;;;;1999.90;999.90;;;;;;;8.18;100.00;94155.97;10381725;28;20287;-79
2024/03/02 01:59:47;;;;;;;1999.90;999.90;;;;;;;8.25;100.00;94159.16;10378945;28;20382;-79
2024/03/02 02:04:48;;;;;;;1999.90;999.90;;;;;;;8.32;100.00;94154.31;10386934;28;20826;-79
2024/03/02 02:09:48;;;;;;;1999.90;999.90;;;;;;;8.37;100.00;94154.31;10390222;28;20436;-80
2024/03/02 02:14:51;;;;;;;1999.90;999.90;;;;;;;8.37;100.00;94145.44;10387949;28;20029;-78
2024/03/02 02:19:52;;;;;;;1999.90;999.90;;;;;;;8.30;100.00;94147.63;10388719;28;20185;-79
2024/03/02 02:24:52;;;;;;;1999.90;999.90;;;;;;;8.28;100.00;94141.75;10389376;28;20037;-78
2024/03/02 02:29:52;;;;;;;1999.90;999.90;;;;;;;8.20;100.00;94135.06;10387974;28;20033;-78
2024/03/02 02:34:53;;;;;;;1999.90;999.90;;;;;;;8.18;100.00;94153.28;10391229;28;20686;-77
2024/03/02 02:39:53;;;;;;;1999.90;999.90;;;;;;;8.27;100.00;94148.97;10394284;28;20279;-78
2024/03/02 02:44:54;;;;;;;1999.90;999.90;;;;;;;8.14;100.00;94146.88;10393743;28;20033;-77
2024/03/02 02:49:54;;;;;;;1999.90;999.90;;;;;;;8.18;100.00;94147.94;10392677;28;20307;-80
2024/03/02 02:54:54;;;;;;;1999.90;999.90;;;;;;;8.16;100.00;94150.91;10393210;28;20040;-78
2024/03/02 02:59:55;;;;;;;1999.90;999.90;;;;;;;8.21;100.00;94150.06;10388636;28;20353;-78
2024/03/02 03:04:57;;;;;;;1999.90;999.90;;;;;;;8.19;100.00;94146.84;10392540;28;20311;-77
2024/03/02 03:09:57;;;;;;;1999.90;999.90;;;;;;;8.31;100.00;94147.34;10390955;28;20287;-77
2024/03/02 03:14:58;;;;;;;1999.90;999.90;;;;;;;8.20;100.00;94149.28;10389560;28;20022;-76
2024/03/02 03:19:58;;;;;;;1999.90;999.90;;;;;;;8.29;100.00;94151.38;10389889;28;20287;-79
2024/03/02 03:24:59;;;;;;;1999.90;999.90;;;;;;;8.29;100.00;94146.84;10390488;28;20032;-77
2024/03/02 03:29:59;;;;;;;1999.90;999.90;;;;;;;8.19;100.00;94149.53;10390292;28;20450;-79
2024/03/02 03:35:00;;;;;;;1999.90;999.90;;;;;;;8.28;100.00;94144.44;10391292;28;20044;-78
2024/03/02 03:40:01;;;;;;;1999.90;999.90;;;;;;;8.36;100.00;94155.38;10389772;28;20279;-78
2024/03/02 03:45:03;;;;;;;1999.90;999.90;;;;;;;8.37;100.00;94143.59;10391148;28;20059;-77
2024/03/02 03:50:06;;;;;;;1999.90;999.90;;;;;;;8.30;100.00;94145.75;10393484;28;20025;-77
2024/03/02 03:55:07;;;;;;;1999.90;999.90;;;;;;;8.19;100.00;94144.16;10387943;28;20025;-78
2024/03/02 04:00:10;;;;;;;1999.90;999.90;;;;;;;8.11;100.00;94144.75;10383686;28;20528;-78
2024/03/02 04:05:10;;;;;;;1999.90;999.90;;;;;;;7.76;100.00;94157.91;10386375;28;20052;-79
2024/03/02 04:10:12;;;;;;;1999.90;999.90;;;;;;;7.71;100.00;94155.25;10383259;28;20147;-78
2024/03/02 04:15:13;;;;;;;1999.90;999.90;;;;;;;7.83;100.00;94153.09;10384658;28;20100;-78
2024/03/02 04:20:13;;;;;;;1999.90;999.90;;;;;;;7.88;100.00;94149.59;10383585;28;20100;-79
2024/03/02 04:25:13;;;;;;;1999.90;999.90;;;;;;;7.93;100.00;94151.47;10386397;28;20072;-79
2024/03/02 04:30:14;;;;;;;1999.90;999.90;;;;;;;8.05;100.00;94154.66;10384910;28;20029;-78
2024/03/02 04:35:14;;;;;;;1999.90;999.90;;;;;;;8.00;100.00;94160.03;10383850;28;20037;-78
2024/03/02 04:40:15;;;;;;;1999.90;999.90;;;;;;;7.86;100.00;94157.09;10386248;28;20037;-79
2024/03/02 04:45:15;;;;;;;1999.90;999.90;;;;;;;7.70;100.00;94159.81;10383237;28;20040;-78
2024/03/02 04:50:16;;;;;;;1999.90;999.90;;;;;;;7.57;100.00;94164.91;10382736;28;20491;-78
2024/03/02 05:00:17;;;;;;;1999.90;999.90;;;;;;;7.62;100.00;94168.38;10381555;28;20455;-78
2024/03/02 05:05:17;;;;;;;1999.90;999.90;;;;;;;7.61;100.00;94174.78;10382408;28;20308;-77
2024/03/02 05:10:18;;;;;;;1999.90;999.90;;;;;;;7.64;100.00;94176.91;10381834;28;20116;-77
2024/03/02 05:15:18;;;;;;;1999.90;999.90;;;;;;;7.61;100.00;94177.44;10383204;28;20103;-78
2024/03/02 05:20:18;;;;;;;1999.90;999.90;;;;;;;7.56;100.00;94196.16;10382677;28;20025;-79
2024/03/02 05:25:19;;;;;;;1999.90;999.90;;;;;;;7.53;100.00;94188.69;10381098;28;20033;-81
2024/03/02 05:30:19;;;;;;;1999.90;999.90;;;;;;;7.53;100.00;94199.38;10382091;28;20108;-80
2024/03/02 05:35:20;;;;;;;1999.90;999.90;;;;;;;7.59;100.00;94202.84;10382104;28;20032;-78
2024/03/02 05:40:20;;;;;;;1999.90;999.90;;;;;;;7.66;100.00;94211.41;10387494;28;20029;-78
2024/03/02 05:45:21;;;;;;;1999.90;999.90;;;;;;;7.70;100.00;94220.50;10390580;28;20797;-79
2024/03/02 05:50:21;;;;;;;1999.90;999.90;;;;;;;7.78;100.00;94213.81;10390472;28;20026;-79
2024/03/02 05:55:22;;;;;;;1999.90;999.90;;;;;;;7.77;100.00;94226.41;10391267;28;20033;-79
2024/03/02 06:00:22;;;;;;;1999.90;999.90;;;;;;;7.81;100.00;94227.44;10393539;28;20025;-78
2024/03/02 06:05:23;;;;;;;1999.90;999.90;;;;;;;7.78;100.00;94225.31;10393210;28;20056;-78
2024/03/02 06:10:23;;;;;;;1999.90;999.90;;;;;;;7.74;100.00;94223.44;10409308;23;20053;-78
2024/03/02 06:15:24;;;;;;;1999.90;999.90;;;;;;;7.81;100.00;94227.44;10388340;28;20451;-81
2024/03/02 06:20:26;;;;;;;1999.90;999.90;;;;;;;7.80;100.00;94223.19;10389837;28;20554;-75
2024/03/02 06:25:27;;;;;;;1999.90;999.90;;;;;;;7.62;100.00;94227.19;10405786;28;20482;-75
2024/03/02 06:30:27;;;;;;;1999.90;999.90;;;;;;;7.50;100.00;94232.78;10400749;28;20026;-76
2024/03/02 06:35:27;;;;;;;1999.90;999.90;;;;;;;7.59;100.00;94237.63;10380048;28;20292;-77
2024/03/02 06:40:27;;;;;;;1999.90;999.90;;;;;;;7.45;100.00;94237.34;10416522;28;20029;-74
2024/03/02 06:45:30;;;;;;;1999.90;999.90;;;;;;;7.39;100.00;94238.41;10404820;28;20025;-75
2024/03/02 06:50:30;;;;;;;1999.90;999.90;;;;;;;7.40;100.00;94245.38;10404024;28;20025;-76
2024/03/02 06:55:31;;;;;;;1999.90;999.90;;;;;;;7.29;100.00;94245.31;10431684;28;20397;-76
2024/03/02 07:00:31;;;;;;;1999.90;999.90;;;;;;;7.41;100.00;94244.28;10435450;28;20719;-79
2024/03/02 07:05:31;;;;;;;1999.90;999.90;;;;;;;7.49;100.00;94249.09;10404286;28;20029;-74
2024/03/02 07:10:32;;;;;;;1999.90;999.90;;;;;;;7.52;100.00;94251.25;10372108;28;20046;-83
2024/03/02 07:20:51;;;;;;;1999.90;999.90;;;;;;;7.48;100.00;94256.34;10402776;28;20140;-79
2024/03/02 07:25:54;;;;;;;1999.90;999.90;;;;;;;7.47;100.00;94254.72;10401844;28;20426;-75
2024/03/02 07:31:01;;;;;;;1999.90;999.90;;;;;;;7.58;100.00;94255.53;10412603;28;20029;-75
2024/03/02 07:36:02;;;;;;;1999.90;999.90;;;;;;;7.52;100.00;94257.41;10413551;28;20118;-80
2024/03/02 07:41:04;;;;;;;1999.90;999.90;;;;;;;7.63;100.00;94263.56;10410309;28;20613;-76
2024/03/02 07:46:06;;;;;;;1999.90;999.90;;;;;;;7.69;100.00;94259.81;10404072;28;20076;-78
2024/03/02 07:51:06;;;;;;;1999.90;999.90;;;;;;;7.85;100.00;94267.84;10404334;28;20091;-76
2024/03/02 07:56:07;;;;;;;1999.90;999.90;;;;;;;7.92;100.00;94268.38;10402940;28;20030;-76
2024/03/02 08:01:07;;;;;;;1999.90;999.90;;;;;;;7.91;100.00;94272.16;10401747;28;20036;-80
2024/03/02 08:06:07;;;;;;;1999.90;999.90;;;;;;;7.99;100.00;94273.47;10402645;28;20768;-77
2024/03/02 08:11:09;;;;;;;1999.90;999.90;;;;;;;8.02;100.00;94279.13;10399119;28;20050;-74
2024/03/02 08:16:09;;;;;;;1999.90;999.90;;;;;;;8.11;100.00;94281.25;10401155;28;20037;-75
2024/03/02 08:21:10;;;;;;;1999.90;999.90;;;;;;;8.26;100.00;94280.41;10401169;28;20026;-79
2024/03/02 08:26:11;;;;;;;1999.90;999.90;;;;;;;8.31;100.00;94283.88;10401289;28;20032;-76
2024/03/02 08:31:11;;;;;;;1999.90;999.90;;;;;;;8.34;100.00;94274.53;10400288;28;20083;-77
2024/03/02 08:36:12;;;;;;;1999.90;999.90;;;;;;;8.46;100.00;94275.06;10401685;28;20815;-79
2024/03/02 08:41:13;;;;;;;1999.90;999.90;;;;;;;8.68;100.00;94280.13;10400819;28;20025;-77
2024/03/02 08:46:14;;;;;;;1999.90;999.90;;;;;;;8.79;100.00;94274.72;10400684;28;20121;-75
2024/03/02 08:51:14;;;;;;;1999.90;999.90;;;;;;;8.87;100.00;94266.09;10401357;28;20093;-75
2024/03/02 08:56:15;;;;;;;1999.90;999.90;;;;;;;9.18;100.00;94264.13;10400672;28;20143;-81
2024/03/02 09:01:17;;;;;;;1999.90;999.90;;;;;;;9.60;100.00;94256.66;10400388;28;20303;-78
2024/03/02 09:06:20;;;;;;;1999.90;999.90;;;;;;;9.85;100.00;94254.84;10400014;28;20033;-79
2024/03/02 09:11:20;;;;;;;1999.90;999.90;;;;;;;10.23;100.00;94260.44;10415374;28;20531;-80
2024/03/02 09:16:20;;;;;;;1999.90;999.90;;;;;;;10.31;100.00;94261.72;10399801;28;20147;-76
2024/03/02 09:21:21;;;;;;;1999.90;999.90;;;;;;;10.60;100.00;94267.91;10398502;28;20067;-77
2024/03/02 09:26:22;;;;;;;1999.90;999.90;;;;;;;10.62;100.00;94264.94;10399848;28;20093;-79
2024/03/02 09:31:22;;;;;;;1999.90;999.90;;;;;;;10.56;100.00;94274.13;10398128;28;20049;-78
2024/03/02 09:36:23;;;;;;;1999.90;999.90;;;;;;;10.38;100.00;94275.63;10398223;28;20116;-75
2024/03/02 09:41:23;;;;;;;1999.90;999.90;;;;;;;10.41;100.00;94280.47;10399264;28;20133;-74
2024/03/02 09:46:24;;;;;;;1999.90;999.90;;;;;;;10.15;100.00;94274.50;10398134;28;20268;-81
2024/03/02 09:51:26;;;;;;;1999.90;999.90;;;;;;;10.18;100.00;94277.38;10398442;28;20025;-77
2024/03/02 09:56:26;;;;;;;1999.90;999.90;;;;;;;10.23;100.00;94276.56;10399881;28;20025;-75
2024/03/02 10:01:26;;;;;;;1999.90;999.90;;;;;;;10.30;100.00;94271.66;10397606;28;20115;-75
2024/03/02 10:06:28;;;;;;;1999.90;999.90;;;;;;;10.27;100.00;94274.91;10397583;28;20033;-76
2024/03/02 10:11:31;;;;;;;1999.90;999.90;;;;;;;10.50;100.00;94272.59;10400216;28;20308;-76
2024/03/02 10:16:31;;;;;;;1999.90;999.90;;;;;;;10.45;100.00;94280.69;10414748;28;20039;-74
2024/03/02 10:21:31;;;;;;;1999.90;999.90;;;;;;;10.52;100.00;94273.09;10397508;28;20022;-75
2024/03/02 10:26:32;;;;;;;1999.90;999.90;;;;;;;10.60;100.00;94267.09;10407172;28;20032;-79
2024/03/02 10:31:32;;;;;;;1999.90;999.90;;;;;;;10.51;100.00;94274.19;10405232;28;20033;-75
2024/03/02 10:36:34;;;;;;;1999.90;999.90;;;;;;;10.41;100.00;94275.88;10421995;28;20458;-75
2024/03/02 10:41:36;;;;;;;1999.90;999.90;;;;;;;10.46;100.00;94274.25;10389510;28;20022;-76
2024/03/02 10:46:37;;;;;;;1999.90;999.90;;;;;;;10.25;100.00;94272.50;10406357;28;20092;-81
2024/03/02 10:51:38;;;;;;;1999.90;999.90;;;;;;;10.23;100.00;94272.00;10421026;28;20033;-75
2024/03/02 10:56:40;;;;;;;1999.90;999.90;;;;;;;10.15;100.00;94266.44;10405706;28;20029;-75
2024/03/02 11:01:43;;;;;;;1999.90;999.90;;;;;;;10.16;100.00;94262.63;10404037;28;20024;-76
2024/03/02 11:06:49;;;;;;;1999.90;999.90;;;;;;;10.23;100.00;94253.19;10403412;28;20094;-76
2024/03/02 11:12:01;;;;;;;1999.90;999.90;;;;;;;10.24;100.00;94253.97;10402698;28;20057;-75
2024/03/02 11:17:03;;;;;;;1999.90;999.90;;;;;;;10.15;100.00;94253.78;10420257;28;20048;-75
2024/03/02 11:22:04;;;;;;;1999.90;999.90;;;;;;;10.13;100.00;94255.16;10404121;28;20033;-76
2024/03/02 11:27:07;;;;;;;1999.90;999.90;;;;;;;10.08;100.00;94251.44;10386115;28;20183;-76
2024/03/02 11:32:20;;;;;;;1999.90;999.90;;;;;;;10.06;100.00;94248.25;10402634;28;20475;-76
2024/03/02 11:37:21;;;;;;;1999.90;999.90;;;;;;;10.12;100.00;94251.69;10417585;28;20113;-76
2024/03/02 11:42:21;;;;;;;1999.90;999.90;;;;;;;10.01;100.00;94250.97;10400517;28;20458;-79
2024/03/02 11:47:22;;;;;;;1999.90;999.90;;;;;;;10.06;100.00;94250.09;10386826;28;20024;-75
2024/03/02 11:52:23;;;;;;;1999.90;999.90;;;;;;;9.94;100.00;94255.84;10376278;28;20037;-80
2024/03/02 11:57:24;;;;;;;1999.90;999.90;;;;;;;9.89;100.00;94256.69;10365674;28;20423;-74
2024/03/02 12:02:25;;;;;;;1999.90;999.90;;;;;;;9.88;100.00;94254.31;10379522;28;20036;-79
2024/03/02 12:07:26;;;;;;;1999.90;999.90;;;;;;;9.86;100.00;94254.56;10400094;28;20065;-77
2024/03/02 12:12:27;;;;;;;1999.90;999.90;;;;;;;9.85;100.00;94254.84;10394458;28;20093;-79
2024/03/02 12:17:29;;;;;;;1999.90;999.90;;;;;;;9.74;100.00;94249.56;10361787;28;20522;-80
2024/03/02 12:22:29;;;;;;;1999.90;999.90;;;;;;;9.89;100.00;94253.19;10360061;28;20523;-79
2024/03/02 12:27:30;;;;;;;1999.90;999.90;;;;;;;10.03;100.00;94254.19;10359733;28;20022;-75
2024/03/02 12:32:30;;;;;;;1999.90;999.90;;;;;;;10.03;100.00;94261.41;10360413;28;20794;-80
2024/03/02 12:37:31;;;;;;;1999.90;999.90;;;;;;;10.09;100.00;94255.72;10361851;28;20036;-81
2024/03/02 12:42:31;;;;;;;1999.90;999.90;;;;;;;10.06;100.00;94253.59;10397156;28;20105;-84
2024/03/02 12:47:32;;;;;;;1999.90;999.90;;;;;;;10.14;100.00;94252.19;10402927;28;20130;-75
2024/03/02 12:52:34;;;;;;;1999.90;999.90;;;;;;;10.38;100.00;94243.41;10359116;28;20149;-75
2024/03/02 12:57:34;;;;;;;1999.90;999.90;;;;;;;10.48;100.00;94237.13;10361706;28;20034;-78
2024/03/02 13:02:36;;;;;;;1999.90;999.90;;;;;;;10.50;100.00;94257.25;10383834;28;20052;-77
2024/03/02 13:07:37;;;;;;;1999.90;999.90;;;;;;;10.58;100.00;94243.19;10389341;28;20572;-82
2024/03/02 13:12:37;;;;;;;1999.90;999.90;;;;;;;10.56;100.00;94249.94;10361731;28;20053;-75
2024/03/02 13:17:39;;;;;;;1999.90;999.90;;;;;;;10.59;100.00;94249.38;10358277;28;20034;-77
2024/03/02 13:22:39;;;;;;;1999.90;999.90;;;;;;;10.71;100.00;94254.38;10358889;28;20586;-82
2024/03/02 13:27:40;;;;;;;1999.90;999.90;;;;;;;10.51;100.00;94252.69;10358178;28;20030;-73
2024/03/02 13:32:40;;;;;;;1999.90;999.90;;;;;;;10.55;100.00;94259.91;10357405;28;20034;-80
2024/03/02 13:37:41;;;;;;;1999.90;999.90;;;;;;;10.48;100.00;94259.44;10358263;28;20048;-79
2024/03/02 13:42:41;;;;;;;1999.90;999.90;;;;;;;10.56;100.00;94258.81;10359909;28;20101;-78
2024/03/02 13:47:41;;;;;;;1999.90;999.90;;;;;;;10.61;100.00;94260.66;10357423;28;20403;-78
2024/03/02 13:52:42;;;;;;;1999.90;999.90;;;;;;;10.55;100.00;94270.66;10358162;28;20273;-81
2024/03/02 13:57:42;;;;;;;1999.90;999.90;;;;;;;10.60;100.00;94273.28;10366965;28;20037;-80
2024/03/02 14:02:43;;;;;;;1999.90;999.90;;;;;;;10.52;100.00;94276.59;10406362;28;20029;-75
2024/03/02 14:07:44;;;;;;;1999.90;999.90;;;;;;;10.55;100.00;94272.53;10464349;28;20283;-78
2024/03/02 14:12:44;;;;;;;1999.90;999.90;;;;;;;10.55;100.00;94280.59;10447212;28;20040;-75
2024/03/02 14:17:44;;;;;;;1999.90;999.90;;;;;;;10.36;100.00;94289.34;10446156;28;20067;-76
2024/03/02 14:22:45;;;;;;;1999.90;999.90;;;;;;;10.50;100.00;94289.50;10447172;28;20024;-74
2024/03/02 14:27:46;;;;;;;1999.90;999.90;;;;;;;10.45;100.00;94289.53;10446391;28;20029;-77
2024/03/02 14:32:47;;;;;;;1999.90;999.90;;;;;;;10.51;100.00;94287.63;10400778;28;20668;-75
2024/03/02 14:37:47;;;;;;;1999.90;999.90;;;;;;;10.43;100.00;94289.81;10366074;28;20033;-78
2024/03/02 14:42:48;;;;;;;1999.90;999.90;;;;;;;10.13;100.00;94292.75;10370120;28;20312;-81
2024/03/02 14:47:49;;;;;;;1999.90;999.90;;;;;;;10.18;100.00;94296.19;10366759;28;20018;-82
2024/03/02 14:52:49;;;;;;;1999.90;999.90;;;;;;;10.23;100.00;94290.00;10385696;28;20030;-83
2024/03/02 14:57:50;;;;;;;1999.90;999.90;;;;;;;10.23;100.00;94295.38;10399914;28;20095;-80
2024/03/02 15:02:50;;;;;;;1999.90;999.90;;;;;;;9.99;100.00;94290.72;10407273;28;20500;-80
2024/03/02 15:07:51;;;;;;;1999.90;999.90;;;;;;;10.07;100.00;94297.34;10449389;28;20036;-78
2024/03/02 15:12:51;;;;;;;1999.90;999.90;;;;;;;9.89;100.00;94298.81;10455190;28;20029;-74
2024/03/02 15:17:52;;;;;;;1999.90;999.90;;;;;;;9.71;100.00;94303.78;10444245;28;20028;-76
2024/03/02 15:22:52;;;;;;;1999.90;999.90;;;;;;;9.64;100.00;94311.34;10459442;28;20033;-79
2024/03/02 15:27:54;;;;;;;1999.90;999.90;;;;;;;9.56;100.00;94314.63;10467604;28;20036;-77
2024/03/02 15:32:54;;;;;;;1999.90;999.90;;;;;;;9.48;100.00;94317.88;10445243;28;20041;-76
2024/03/02 15:37:56;;;;;;;1999.90;999.90;;;;;;;9.44;100.00;94314.94;10365570;28;20034;-72
2024/03/02 15:42:58;;;;;;;1999.90;999.90;;;;;;;9.61;100.00;94317.25;10377947;28;20350;-79
2024/03/02 15:47:58;;;;;;;1999.90;999.90;;;;;;;9.75;100.00;94317.44;10384188;28;20065;-81
2024/03/02 15:53:03;;;;;;;1999.90;999.90;;;;;;;9.73;100.00;94320.41;10387386;28;20187;-82
2024/03/02 15:58:05;;;;;;;1999.90;999.90;;;;;;;9.82;100.00;94325.97;10386989;28;20549;-77
2024/03/02 16:03:06;;;;;;;1999.90;999.90;;;;;;;9.87;100.00;94325.94;10372371;28;20112;-81
2024/03/02 16:08:06;;;;;;;1999.90;999.90;;;;;;;9.89;100.00;94325.66;10387025;28;20033;-83
2024/03/02 16:13:06;;;;;;;1999.90;999.90;;;;;;;9.87;100.00;94330.53;10384480;28;20036;-79
2024/03/02 16:18:07;;;;;;;1999.90;999.90;;;;;;;9.83;100.00;94334.84;10381724;28;20419;-78
2024/03/02 16:23:07;;;;;;;1999.90;999.90;;;;;;;9.80;100.00;94324.69;10400095;28;20349;-81
2024/03/02 16:28:08;;;;;;;1999.90;999.90;;;;;;;9.70;100.00;94328.22;10404584;28;20067;-78
2024/03/02 16:33:09;;;;;;;1999.90;999.90;;;;;;;9.52;100.00;94325.09;10401130;28;20272;-78
2024/03/02 16:38:10;;;;;;;1999.90;999.90;;;;;;;9.43;100.00;94336.66;10419214;28;20025;-78
2024/03/02 16:43:10;;;;;;;1999.90;999.90;;;;;;;9.40;100.00;94329.97;10405987;28;20036;-83
2024/03/02 16:48:11;;;;;;;1999.90;999.90;;;;;;;9.29;100.00;94345.28;10401996;28;20448;-79
2024/03/02 16:53:12;;;;;;;1999.90;999.90;;;;;;;9.20;100.00;94350.44;10379611;28;20314;-80
2024/03/02 16:58:12;;;;;;;1999.90;999.90;;;;;;;9.25;100.00;94346.91;10379483;28;20516;-83
2024/03/02 17:03:16;;;;;;;1999.90;999.90;;;;;;;9.31;100.00;94358.44;10376040;28;20519;-81
2024/03/02 17:08:16;;;;;;;1999.90;999.90;;;;;;;9.32;100.00;94355.50;10381342;28;20068;-85
2024/03/02 17:13:16;;;;;;;1999.90;999.90;;;;;;;9.24;100.00;94361.41;10359502;28;20050;-79
2024/03/02 17:18:17;;;;;;;1999.90;999.90;;;;;;;9.17;100.00;94366.28;10399751;28;20521;-76
2024/03/02 17:23:17;;;;;;;1999.90;999.90;;;;;;;9.19;100.00;94372.16;10433229;28;20295;-76
2024/03/02 17:28:23;;;;;;;1999.90;999.90;;;;;;;9.19;100.00;94370.25;10445887;28;20345;-77
2024/03/02 17:33:24;;;;;;;1999.90;999.90;;;;;;;9.24;100.00;94372.16;10437400;28;20709;-75
2024/03/02 17:38:24;;;;;;;1999.90;999.90;;;;;;;9.27;100.00;94371.59;10448418;28;20032;-75
2024/03/02 17:43:25;;;;;;;1999.90;999.90;;;;;;;9.28;100.00;94375.88;10395687;28;20462;-77
2024/03/02 17:48:25;;;;;;;1999.90;999.90;;;;;;;9.24;100.00;94385.56;10395030;28;20030;-76
2024/03/02 17:53:26;;;;;;;1999.90;999.90;;;;;;;8.89;100.00;94390.72;10398381;28;20025;-79
2024/03/02 17:58:26;;;;;;;1999.90;999.90;;;;;;;8.96;100.00;94401.16;10385232;28;20678;-82
2024/03/02 18:03:26;;;;;;;1999.90;999.90;;;;;;;8.93;100.00;94387.50;10371241;28;20784;-75
2024/03/02 18:08:27;;;;;;;1999.90;999.90;;;;;;;8.74;100.00;94389.94;10439293;28;20106;-71
2024/03/02 18:13:29;;;;;;;1999.90;999.90;;;;;;;8.62;100.00;94399.03;10441041;28;20549;-76
2024/03/02 18:18:29;;;;;;;1999.90;999.90;;;;;;;8.53;100.00;94398.00;10429198;28;20044;-75
2024/03/02 18:23:29;;;;;;;1999.90;999.90;;;;;;;8.46;100.00;94414.31;10397133;28;20401;-75
2024/03/02 18:28:30;;;;;;;1999.90;999.90;;;;;;;8.39;100.00;94400.38;10407837;28;20033;-77
2024/03/02 18:33:33;;;;;;;1999.90;999.90;;;;;;;8.44;100.00;94403.06;10374866;28;20041;-83
2024/03/02 18:38:35;;;;;;;1999.90;999.90;;;;;;;8.42;100.00;94404.41;10403226;23;20680;-78
2024/03/02 18:43:35;;;;;;;1999.90;999.90;;;;;;;8.45;100.00;94406.56;10383563;28;20526;-74
2024/03/02 18:48:36;;;;;;;1999.90;999.90;;;;;;;8.45;100.00;94419.94;10387597;28;20142;-75
2024/03/02 18:53:37;;;;;;;1999.90;999.90;;;;;;;8.29;100.00;94414.56;10387923;28;20035;-77
2024/03/02 18:58:37;;;;;;;1999.90;999.90;;;;;;;8.24;100.00;94421.78;10389751;28;20435;-75
2024/03/02 19:03:37;;;;;;;1999.90;999.90;;;;;;;8.24;100.00;94424.47;10388122;28;20067;-74
2024/03/02 19:08:37;;;;;;;1999.90;999.90;;;;;;;8.03;100.00;94419.06;10387358;28;20064;-75
2024/03/02 19:13:38;;;;;;;1999.90;999.90;;;;;;;7.96;100.00;94416.63;10389493;28;20187;-76
2024/03/02 19:18:40;;;;;;;1999.90;999.90;;;;;;;7.79;100.00;94414.19;10389468;28;20029;-72
2024/03/02 19:23:40;;;;;;;1999.90;999.90;;;;;;;7.70;100.00;94424.59;10384967;28;20029;-71
2024/03/02 19:28:42;;;;;;;1999.90;999.90;;;;;;;7.72;100.00;94423.50;10387547;28;20029;-79
2024/03/02 19:33:44;;;;;;;1999.90;999.90;;;;;;;7.67;100.00;94419.78;10374092;28;20396;-77
2024/03/02 19:38:45;;;;;;;1999.90;999.90;;;;;;;7.78;100.00;94415.25;10383082;28;20390;-74
2024/03/02 19:43:45;;;;;;;1999.90;999.90;;;;;;;7.96;100.00;94415.84;10359671;28;20033;-76
2024/03/02 19:48:46;;;;;;;1999.90;999.90;;;;;;;7.99;100.00;94418.78;10387983;28;20151;-80
2024/03/02 19:53:46;;;;;;;1999.90;999.90;;;;;;;8.13;100.00;94419.06;10387215;28;21032;-76
2024/03/02 19:58:47;;;;;;;1999.90;999.90;;;;;;;8.23;100.00;94422.84;10386867;28;21181;-78
2024/03/02 20:03:49;;;;;;;1999.90;999.90;;;;;;;8.16;100.00;94431.94;10387018;28;20558;-77
2024/03/02 20:08:50;;;;;;;1999.90;999.90;;;;;;;8.03;100.00;94427.09;10396461;28;20021;-78
2024/03/02 20:13:50;;;;;;;1999.90;999.90;;;;;;;8.08;100.00;94437.81;10386859;28;20025;-78
2024/03/02 20:18:50;;;;;;;1999.90;999.90;;;;;;;8.04;100.00;94426.03;10385625;28;20499;-75
2024/03/02 20:23:52;;;;;;;1999.90;999.90;;;;;;;7.94;100.00;94442.88;10385286;28;20029;-73
2024/03/02 20:28:53;;;;;;;1999.90;999.90;;;;;;;7.85;100.00;94442.56;10387442;28;20420;-80
2024/03/02 20:33:53;;;;;;;1999.90;999.90;;;;;;;7.85;100.00;94439.88;10390877;28;20025;-82
2024/03/02 20:38:53;;;;;;;1999.90;999.90;;;;;;;7.97;100.00;94441.53;10394333;28;20048;-80
2024/03/02 20:43:54;;;;;;;1999.90;999.90;;;;;;;7.87;100.00;94443.09;10391777;28;20025;-81
2024/03/02 20:48:54;;;;;;;1999.90;999.90;;;;;;;8.05;100.00;94435.66;10366385;28;20092;-75
2024/03/02 20:53:55;;;;;;;1999.90;999.90;;;;;;;8.13;100.00;94432.47;10392017;28;20029;-79
2024/03/02 20:58:56;;;;;;;1999.90;999.90;;;;;;;8.19;100.00;94442.13;10391739;28;20026;-81
2024/03/02 21:03:56;;;;;;;1999.90;999.90;;;;;;;8.35;100.00;94445.59;10390390;28;20025;-78
2024/03/02 21:08:58;;;;;;;1999.90;999.90;;;;;;;8.46;100.00;94446.47;10392390;28;20025;-86
2024/03/02 21:13:58;;;;;;;1999.90;999.90;;;;;;;8.55;100.00;94446.72;10367665;28;20048;-71
2024/03/02 21:18:59;;;;;;;1999.90;999.90;;;;;;;8.52;100.00;94453.41;10379678;28;20025;-73
2024/03/02 21:23:59;;;;;;;1999.90;999.90;;;;;;;8.31;100.00;94451.78;10380851;28;20107;-73
2024/03/02 21:28:59;;;;;;;1999.90;999.90;;;;;;;8.44;100.00;94440.56;10380876;28;20377;-72
2024/03/02 21:34:00;;;;;;;1999.90;999.90;;;;;;;8.51;100.00;94441.13;10379710;28;20029;-72
2024/03/02 21:39:00;;;;;;;1999.90;999.90;;;;;;;8.45;100.00;94433.34;10387364;23;20549;-82
2024/03/02 21:44:01;;;;;;;1999.90;999.90;;;;;;;8.49;100.00;94429.06;10406133;28;20037;-78
2024/03/02 21:49:05;;;;;;;1999.90;999.90;;;;;;;8.49;100.00;94435.22;10400022;28;20021;-79
2024/03/02 21:54:05;;;;;;;1999.90;999.90;;;;;;;8.49;100.00;94440.56;10386632;28;20586;-78
2024/03/02 21:59:06;;;;;;;1999.90;999.90;;;;;;;8.52;100.00;94445.38;10391725;28;20029;-75
2024/03/02 22:04:07;;;;;;;1999.90;999.90;;;;;;;8.52;100.00;94447.28;10384947;28;20100;-73
2024/03/02 22:09:12;;;;;;;1999.90;999.90;;;;;;;8.45;100.00;94447.53;10370513;28;20459;-83